sensor_id;sensor_type;location;lat;lon;timestamp;P1;durP1;ratioP1;P2;durP2;ratioP2
52318;SDS011;38258;51.148;14.068;2023-07-31T00:01:06;7.78;;;3.13;;
52318;SDS011;38258;51.148;14.068;2023-07-31T00:03:33;9.23;;;2.90;;
52318;SDS011;38258;51.148;14.068;2023-07-31T00:06:00;5.85;;;3.10;;
52318;SDS011;38258;51.148;14.068;2023-07-31T00:08:27;5.88;;;3.22;;
52318;SDS011;38258;51.148;14.068;2023-07-31T00:10:55;6.97;;;2.95;;
52318;SDS011;38258;51.148;14.068;2023-07-31T00:13:21;6.20;;;2.67;;
52318;SDS011;38258;51.148;14.068;2023-07-31T00:15:48;5.82;;;2.97;;
52318;SDS011;38258;51.148;14.068;2023-07-31T00:18:15;6.88;;;3.05;;
52318;SDS011;38258;51.148;14.068;2023-07-31T00:20:42;6.38;;;2.47;;
52318;SDS011;38258;51.148;14.068;2023-07-31T00:23:08;6.57;;;2.83;;
52318;SDS011;38258;51.148;14.068;2023-07-31T00:25:35;5.35;;;2.60;;
52318;SDS011;38258;51.148;14.068;2023-07-31T00:28:04;6.03;;;2.80;;
52318;SDS011;38258;51.148;14.068;2023-07-31T00:30:30;3.65;;;2.60;;
52318;SDS011;38258;51.148;14.068;2023-07-31T00:32:57;6.35;;;2.85;;
52318;SDS011;38258;51.148;14.068;2023-07-31T00:35:24;6.20;;;3.15;;
52318;SDS011;38258;51.148;14.068;2023-07-31T00:37:51;5.28;;;2.90;;
52318;SDS011;38258;51.148;14.068;2023-07-31T00:40:18;5.32;;;2.90;;
52318;SDS011;38258;51.148;14.068;2023-07-31T00:42:44;5.20;;;2.85;;
52318;SDS011;38258;51.148;14.068;2023-07-31T00:45:14;6.50;;;2.95;;
52318;SDS011;38258;51.148;14.068;2023-07-31T00:47:41;6.82;;;3.00;;
52318;SDS011;38258;51.148;14.068;2023-07-31T00:50:08;13.27;;;3.25;;
52318;SDS011;38258;51.148;14.068;2023-07-31T00:52:37;7.22;;;3.08;;
52318;SDS011;38258;51.148;14.068;2023-07-31T00:55:04;5.95;;;2.90;;
52318;SDS011;38258;51.148;14.068;2023-07-31T00:57:32;6.47;;;2.80;;
52318;SDS011;38258;51.148;14.068;2023-07-31T01:00:00;4.32;;;2.60;;
52318;SDS011;38258;51.148;14.068;2023-07-31T01:02:29;6.20;;;2.70;;
52318;SDS011;38258;51.148;14.068;2023-07-31T01:04:56;8.52;;;3.22;;
52318;SDS011;38258;51.148;14.068;2023-07-31T01:07:26;6.75;;;3.33;;
52318;SDS011;38258;51.148;14.068;2023-07-31T01:09:59;10.30;;;3.15;;
52318;SDS011;38258;51.148;14.068;2023-07-31T01:12:29;6.75;;;3.10;;
52318;SDS011;38258;51.148;14.068;2023-07-31T01:15:07;7.72;;;2.75;;
52318;SDS011;38258;51.148;14.068;2023-07-31T01:17:37;6.75;;;2.80;;
52318;SDS011;38258;51.148;14.068;2023-07-31T01:20:05;9.18;;;3.30;;
52318;SDS011;38258;51.148;14.068;2023-07-31T01:22:45;8.40;;;2.78;;
52318;SDS011;38258;51.148;14.068;2023-07-31T01:25:32;8.68;;;2.78;;
52318;SDS011;38258;51.148;14.068;2023-07-31T01:28:19;5.82;;;2.72;;
52318;SDS011;38258;51.148;14.068;2023-07-31T01:30:50;5.80;;;2.70;;
52318;SDS011;38258;51.148;14.068;2023-07-31T01:33:20;9.20;;;2.63;;
52318;SDS011;38258;51.148;14.068;2023-07-31T01:35:48;9.75;;;2.63;;
52318;SDS011;38258;51.148;14.068;2023-07-31T01:38:15;5.57;;;2.45;;
52318;SDS011;38258;51.148;14.068;2023-07-31T01:40:49;7.22;;;2.65;;
52318;SDS011;38258;51.148;14.068;2023-07-31T01:43:19;4.45;;;2.58;;
52318;SDS011;38258;51.148;14.068;2023-07-31T01:45:46;6.47;;;2.60;;
52318;SDS011;38258;51.148;14.068;2023-07-31T01:48:13;4.30;;;2.40;;
52318;SDS011;38258;51.148;14.068;2023-07-31T01:50:40;7.90;;;2.90;;
52318;SDS011;38258;51.148;14.068;2023-07-31T01:53:07;5.10;;;2.60;;
52318;SDS011;38258;51.148;14.068;2023-07-31T01:55:34;5.60;;;2.60;;
52318;SDS011;38258;51.148;14.068;2023-07-31T01:58:02;4.82;;;2.45;;
52318;SDS011;38258;51.148;14.068;2023-07-31T02:00:29;4.68;;;2.90;;
52318;SDS011;38258;51.148;14.068;2023-07-31T02:02:54;4.70;;;2.50;;
52318;SDS011;38258;51.148;14.068;2023-07-31T02:05:21;6.43;;;2.80;;
52318;SDS011;38258;51.148;14.068;2023-07-31T02:07:48;5.03;;;2.33;;
52318;SDS011;38258;51.148;14.068;2023-07-31T02:10:15;6.05;;;2.60;;
52318;SDS011;38258;51.148;14.068;2023-07-31T02:12:42;5.28;;;3.15;;
52318;SDS011;38258;51.148;14.068;2023-07-31T02:15:10;4.68;;;2.60;;
52318;SDS011;38258;51.148;14.068;2023-07-31T02:17:37;3.58;;;2.20;;
52318;SDS011;38258;51.148;14.068;2023-07-31T02:20:04;4.47;;;2.22;;
52318;SDS011;38258;51.148;14.068;2023-07-31T02:22:32;4.45;;;2.88;;
52318;SDS011;38258;51.148;14.068;2023-07-31T02:24:59;3.58;;;2.13;;
52318;SDS011;38258;51.148;14.068;2023-07-31T02:27:26;3.35;;;2.30;;
52318;SDS011;38258;51.148;14.068;2023-07-31T02:29:52;5.55;;;2.60;;
52318;SDS011;38258;51.148;14.068;2023-07-31T02:32:21;4.40;;;2.30;;
52318;SDS011;38258;51.148;14.068;2023-07-31T02:34:48;4.30;;;2.53;;
52318;SDS011;38258;51.148;14.068;2023-07-31T02:37:16;5.43;;;2.50;;
52318;SDS011;38258;51.148;14.068;2023-07-31T02:39:42;5.25;;;2.22;;
52318;SDS011;38258;51.148;14.068;2023-07-31T02:42:09;3.78;;;2.30;;
52318;SDS011;38258;51.148;14.068;2023-07-31T02:44:36;4.75;;;2.22;;
52318;SDS011;38258;51.148;14.068;2023-07-31T02:47:03;3.92;;;2.20;;
52318;SDS011;38258;51.148;14.068;2023-07-31T02:49:31;4.18;;;2.17;;
52318;SDS011;38258;51.148;14.068;2023-07-31T02:51:58;4.95;;;2.60;;
52318;SDS011;38258;51.148;14.068;2023-07-31T02:54:25;7.32;;;2.38;;
52318;SDS011;38258;51.148;14.068;2023-07-31T02:56:52;3.45;;;2.38;;
52318;SDS011;38258;51.148;14.068;2023-07-31T02:59:20;4.93;;;2.38;;
52318;SDS011;38258;51.148;14.068;2023-07-31T03:01:47;5.72;;;2.38;;
52318;SDS011;38258;51.148;14.068;2023-07-31T03:04:14;5.65;;;2.58;;
52318;SDS011;38258;51.148;14.068;2023-07-31T03:06:42;3.45;;;2.30;;
52318;SDS011;38258;51.148;14.068;2023-07-31T03:09:09;5.18;;;2.47;;
52318;SDS011;38258;51.148;14.068;2023-07-31T03:11:36;5.82;;;2.35;;
52318;SDS011;38258;51.148;14.068;2023-07-31T03:14:02;6.53;;;2.13;;
52318;SDS011;38258;51.148;14.068;2023-07-31T03:16:29;5.03;;;2.28;;
52318;SDS011;38258;51.148;14.068;2023-07-31T03:18:56;4.45;;;2.30;;
52318;SDS011;38258;51.148;14.068;2023-07-31T03:21:23;5.10;;;2.10;;
52318;SDS011;38258;51.148;14.068;2023-07-31T03:23:51;3.85;;;2.17;;
52318;SDS011;38258;51.148;14.068;2023-07-31T03:26:18;5.28;;;2.38;;
52318;SDS011;38258;51.148;14.068;2023-07-31T03:28:44;4.57;;;2.30;;
52318;SDS011;38258;51.148;14.068;2023-07-31T03:31:11;4.35;;;2.20;;
52318;SDS011;38258;51.148;14.068;2023-07-31T03:33:38;4.18;;;2.20;;
52318;SDS011;38258;51.148;14.068;2023-07-31T03:36:05;3.50;;;2.30;;
52318;SDS011;38258;51.148;14.068;2023-07-31T03:38:33;5.35;;;2.42;;
52318;SDS011;38258;51.148;14.068;2023-07-31T03:41:01;6.45;;;2.33;;
52318;SDS011;38258;51.148;14.068;2023-07-31T03:43:28;5.40;;;2.40;;
52318;SDS011;38258;51.148;14.068;2023-07-31T03:45:54;5.35;;;2.30;;
52318;SDS011;38258;51.148;14.068;2023-07-31T03:48:23;4.53;;;2.38;;
52318;SDS011;38258;51.148;14.068;2023-07-31T03:50:50;3.65;;;2.05;;
52318;SDS011;38258;51.148;14.068;2023-07-31T03:53:17;4.45;;;2.08;;
52318;SDS011;38258;51.148;14.068;2023-07-31T03:55:44;3.67;;;2.00;;
52318;SDS011;38258;51.148;14.068;2023-07-31T03:58:12;4.85;;;2.42;;
52318;SDS011;38258;51.148;14.068;2023-07-31T04:00:39;4.10;;;2.05;;
52318;SDS011;38258;51.148;14.068;2023-07-31T04:03:06;2.90;;;2.03;;
52318;SDS011;38258;51.148;14.068;2023-07-31T04:05:33;3.40;;;1.98;;
52318;SDS011;38258;51.148;14.068;2023-07-31T04:08:04;4.43;;;1.90;;
52318;SDS011;38258;51.148;14.068;2023-07-31T04:10:31;4.38;;;2.10;;
52318;SDS011;38258;51.148;14.068;2023-07-31T04:12:58;5.88;;;2.17;;
52318;SDS011;38258;51.148;14.068;2023-07-31T04:15:26;6.70;;;2.25;;
52318;SDS011;38258;51.148;14.068;2023-07-31T04:17:53;6.28;;;2.25;;
52318;SDS011;38258;51.148;14.068;2023-07-31T04:20:20;4.40;;;1.98;;
52318;SDS011;38258;51.148;14.068;2023-07-31T04:22:47;4.38;;;2.15;;
52318;SDS011;38258;51.148;14.068;2023-07-31T04:25:13;3.88;;;1.98;;
52318;SDS011;38258;51.148;14.068;2023-07-31T04:27:40;3.15;;;2.22;;
52318;SDS011;38258;51.148;14.068;2023-07-31T04:30:07;5.50;;;2.17;;
52318;SDS011;38258;51.148;14.068;2023-07-31T04:32:36;5.05;;;2.28;;
52318;SDS011;38258;51.148;14.068;2023-07-31T04:35:03;3.67;;;2.08;;
52318;SDS011;38258;51.148;14.068;2023-07-31T04:37:30;3.60;;;2.40;;
52318;SDS011;38258;51.148;14.068;2023-07-31T04:39:57;5.10;;;2.35;;
52318;SDS011;38258;51.148;14.068;2023-07-31T04:42:23;4.47;;;2.10;;
52318;SDS011;38258;51.148;14.068;2023-07-31T04:44:50;4.70;;;2.42;;
52318;SDS011;38258;51.148;14.068;2023-07-31T04:47:18;3.88;;;2.33;;
52318;SDS011;38258;51.148;14.068;2023-07-31T04:49:46;3.90;;;2.58;;
52318;SDS011;38258;51.148;14.068;2023-07-31T04:52:13;4.78;;;2.33;;
52318;SDS011;38258;51.148;14.068;2023-07-31T04:54:39;7.30;;;2.83;;
52318;SDS011;38258;51.148;14.068;2023-07-31T04:57:06;4.85;;;2.50;;
52318;SDS011;38258;51.148;14.068;2023-07-31T04:59:33;7.78;;;2.88;;
52318;SDS011;38258;51.148;14.068;2023-07-31T05:02:00;7.30;;;2.38;;
52318;SDS011;38258;51.148;14.068;2023-07-31T05:04:26;4.68;;;2.60;;
52318;SDS011;38258;51.148;14.068;2023-07-31T05:06:55;3.55;;;2.35;;
52318;SDS011;38258;51.148;14.068;2023-07-31T05:09:21;5.78;;;2.85;;
52318;SDS011;38258;51.148;14.068;2023-07-31T05:11:48;7.68;;;2.80;;
52318;SDS011;38258;51.148;14.068;2023-07-31T05:14:15;5.53;;;2.70;;
52318;SDS011;38258;51.148;14.068;2023-07-31T05:16:42;7.05;;;2.60;;
52318;SDS011;38258;51.148;14.068;2023-07-31T05:19:08;5.65;;;2.85;;
52318;SDS011;38258;51.148;14.068;2023-07-31T05:21:35;4.65;;;2.30;;
52318;SDS011;38258;51.148;14.068;2023-07-31T05:24:04;5.07;;;2.63;;
52318;SDS011;38258;51.148;14.068;2023-07-31T05:26:31;4.70;;;2.80;;
52318;SDS011;38258;51.148;14.068;2023-07-31T05:28:57;4.90;;;2.60;;
52318;SDS011;38258;51.148;14.068;2023-07-31T05:31:24;5.32;;;2.72;;
52318;SDS011;38258;51.148;14.068;2023-07-31T05:33:51;5.28;;;2.60;;
52318;SDS011;38258;51.148;14.068;2023-07-31T05:36:18;5.15;;;2.42;;
52318;SDS011;38258;51.148;14.068;2023-07-31T05:38:44;6.90;;;2.70;;
52318;SDS011;38258;51.148;14.068;2023-07-31T05:41:13;6.15;;;2.70;;
52318;SDS011;38258;51.148;14.068;2023-07-31T05:43:39;5.22;;;2.70;;
52318;SDS011;38258;51.148;14.068;2023-07-31T05:46:06;4.47;;;2.53;;
52318;SDS011;38258;51.148;14.068;2023-07-31T05:48:34;5.40;;;2.50;;
52318;SDS011;38258;51.148;14.068;2023-07-31T05:51:01;6.63;;;2.70;;
52318;SDS011;38258;51.148;14.068;2023-07-31T05:53:28;6.95;;;2.72;;
52318;SDS011;38258;51.148;14.068;2023-07-31T05:55:55;4.35;;;2.40;;
52318;SDS011;38258;51.148;14.068;2023-07-31T05:58:23;3.60;;;2.40;;
52318;SDS011;38258;51.148;14.068;2023-07-31T06:00:50;4.63;;;2.83;;
52318;SDS011;38258;51.148;14.068;2023-07-31T06:03:16;6.53;;;2.72;;
52318;SDS011;38258;51.148;14.068;2023-07-31T06:05:43;5.63;;;2.63;;
52318;SDS011;38258;51.148;14.068;2023-07-31T06:08:10;4.15;;;2.47;;
52318;SDS011;38258;51.148;14.068;2023-07-31T06:10:37;6.05;;;2.85;;
52318;SDS011;38258;51.148;14.068;2023-07-31T06:13:03;6.03;;;2.70;;
52318;SDS011;38258;51.148;14.068;2023-07-31T06:15:31;4.95;;;2.47;;
52318;SDS011;38258;51.148;14.068;2023-07-31T06:17:58;6.65;;;2.38;;
52318;SDS011;38258;51.148;14.068;2023-07-31T06:20:27;5.72;;;2.50;;
52318;SDS011;38258;51.148;14.068;2023-07-31T06:22:54;6.20;;;2.50;;
52318;SDS011;38258;51.148;14.068;2023-07-31T06:25:20;5.93;;;2.50;;
52318;SDS011;38258;51.148;14.068;2023-07-31T06:27:47;3.55;;;2.50;;
52318;SDS011;38258;51.148;14.068;2023-07-31T06:30:14;5.53;;;2.75;;
52318;SDS011;38258;51.148;14.068;2023-07-31T06:32:42;5.55;;;2.47;;
52318;SDS011;38258;51.148;14.068;2023-07-31T06:35:08;4.55;;;2.50;;
52318;SDS011;38258;51.148;14.068;2023-07-31T06:37:35;5.78;;;2.75;;
52318;SDS011;38258;51.148;14.068;2023-07-31T06:40:02;3.85;;;2.30;;
52318;SDS011;38258;51.148;14.068;2023-07-31T06:42:32;3.88;;;2.30;;
52318;SDS011;38258;51.148;14.068;2023-07-31T06:45:00;4.65;;;2.50;;
52318;SDS011;38258;51.148;14.068;2023-07-31T06:47:27;5.68;;;2.92;;
52318;SDS011;38258;51.148;14.068;2023-07-31T06:49:55;6.18;;;2.70;;
52318;SDS011;38258;51.148;14.068;2023-07-31T06:52:22;5.88;;;2.83;;
52318;SDS011;38258;51.148;14.068;2023-07-31T06:55:00;4.47;;;2.50;;
52318;SDS011;38258;51.148;14.068;2023-07-31T06:57:28;4.00;;;2.30;;
52318;SDS011;38258;51.148;14.068;2023-07-31T06:59:54;5.70;;;2.65;;
52318;SDS011;38258;51.148;14.068;2023-07-31T07:02:21;5.47;;;2.30;;
52318;SDS011;38258;51.148;14.068;2023-07-31T07:04:49;5.22;;;3.00;;
52318;SDS011;38258;51.148;14.068;2023-07-31T07:07:18;5.65;;;2.63;;
52318;SDS011;38258;51.148;14.068;2023-07-31T07:09:45;5.03;;;2.58;;
52318;SDS011;38258;51.148;14.068;2023-07-31T07:12:11;5.43;;;2.45;;
52318;SDS011;38258;51.148;14.068;2023-07-31T07:14:38;4.00;;;2.60;;
52318;SDS011;38258;51.148;14.068;2023-07-31T07:17:05;5.20;;;2.47;;
52318;SDS011;38258;51.148;14.068;2023-07-31T07:19:32;6.60;;;2.65;;
52318;SDS011;38258;51.148;14.068;2023-07-31T07:21:59;4.35;;;2.50;;
52318;SDS011;38258;51.148;14.068;2023-07-31T07:24:28;4.97;;;2.65;;
52318;SDS011;38258;51.148;14.068;2023-07-31T07:27:00;5.68;;;2.40;;
52318;SDS011;38258;51.148;14.068;2023-07-31T07:29:27;7.68;;;2.83;;
52318;SDS011;38258;51.148;14.068;2023-07-31T07:31:54;5.63;;;2.50;;
52318;SDS011;38258;51.148;14.068;2023-07-31T07:34:22;4.75;;;2.58;;
52318;SDS011;38258;51.148;14.068;2023-07-31T07:36:49;4.47;;;2.50;;
52318;SDS011;38258;51.148;14.068;2023-07-31T07:39:15;4.45;;;2.50;;
52318;SDS011;38258;51.148;14.068;2023-07-31T07:41:43;4.85;;;2.50;;
52318;SDS011;38258;51.148;14.068;2023-07-31T07:44:10;6.40;;;2.58;;
52318;SDS011;38258;51.148;14.068;2023-07-31T07:46:37;4.13;;;2.40;;
52318;SDS011;38258;51.148;14.068;2023-07-31T07:49:04;4.25;;;2.30;;
52318;SDS011;38258;51.148;14.068;2023-07-31T07:51:31;4.20;;;2.28;;
52318;SDS011;38258;51.148;14.068;2023-07-31T07:53:58;4.25;;;2.58;;
52318;SDS011;38258;51.148;14.068;2023-07-31T07:56:25;3.05;;;1.83;;
52318;SDS011;38258;51.148;14.068;2023-07-31T07:58:54;4.10;;;2.20;;
52318;SDS011;38258;51.148;14.068;2023-07-31T08:01:21;5.78;;;2.25;;
52318;SDS011;38258;51.148;14.068;2023-07-31T08:03:47;5.82;;;2.50;;
52318;SDS011;38258;51.148;14.068;2023-07-31T08:06:14;3.53;;;2.17;;
52318;SDS011;38258;51.148;14.068;2023-07-31T08:08:41;5.30;;;2.35;;
52318;SDS011;38258;51.148;14.068;2023-07-31T08:11:08;4.00;;;2.35;;
52318;SDS011;38258;51.148;14.068;2023-07-31T08:13:34;4.93;;;2.72;;
52318;SDS011;38258;51.148;14.068;2023-07-31T08:16:03;5.32;;;2.50;;
52318;SDS011;38258;51.148;14.068;2023-07-31T08:18:30;5.20;;;2.45;;
52318;SDS011;38258;51.148;14.068;2023-07-31T08:20:57;4.13;;;2.30;;
52318;SDS011;38258;51.148;14.068;2023-07-31T08:23:24;5.75;;;2.42;;
52318;SDS011;38258;51.148;14.068;2023-07-31T08:25:50;4.50;;;2.30;;
52318;SDS011;38258;51.148;14.068;2023-07-31T08:28:17;3.67;;;2.35;;
52318;SDS011;38258;51.148;14.068;2023-07-31T08:30:44;3.90;;;2.40;;
52318;SDS011;38258;51.148;14.068;2023-07-31T08:33:12;3.78;;;2.35;;
52318;SDS011;38258;51.148;14.068;2023-07-31T08:35:39;4.30;;;2.30;;
52318;SDS011;38258;51.148;14.068;2023-07-31T08:38:05;5.57;;;2.50;;
52318;SDS011;38258;51.148;14.068;2023-07-31T08:40:35;4.50;;;2.45;;
52318;SDS011;38258;51.148;14.068;2023-07-31T08:43:02;4.20;;;2.35;;
52318;SDS011;38258;51.148;14.068;2023-07-31T08:45:29;4.38;;;2.30;;
52318;SDS011;38258;51.148;14.068;2023-07-31T08:47:57;6.28;;;2.40;;
52318;SDS011;38258;51.148;14.068;2023-07-31T08:50:26;3.90;;;2.40;;
52318;SDS011;38258;51.148;14.068;2023-07-31T08:52:53;5.72;;;2.40;;
52318;SDS011;38258;51.148;14.068;2023-07-31T08:55:20;5.75;;;2.40;;
52318;SDS011;38258;51.148;14.068;2023-07-31T08:57:48;6.43;;;2.35;;
52318;SDS011;38258;51.148;14.068;2023-07-31T09:00:18;3.78;;;2.38;;
52318;SDS011;38258;51.148;14.068;2023-07-31T09:02:52;5.22;;;2.80;;
52318;SDS011;38258;51.148;14.068;2023-07-31T09:05:22;5.57;;;2.30;;
52318;SDS011;38258;51.148;14.068;2023-07-31T09:07:51;4.05;;;2.20;;
52318;SDS011;38258;51.148;14.068;2023-07-31T09:10:18;4.45;;;2.28;;
52318;SDS011;38258;51.148;14.068;2023-07-31T09:12:44;6.30;;;2.60;;
52318;SDS011;38258;51.148;14.068;2023-07-31T09:15:12;4.38;;;2.40;;
52318;SDS011;38258;51.148;14.068;2023-07-31T09:17:39;4.63;;;2.03;;
52318;SDS011;38258;51.148;14.068;2023-07-31T09:20:13;3.67;;;2.20;;
52318;SDS011;38258;51.148;14.068;2023-07-31T09:22:41;4.72;;;2.35;;
52318;SDS011;38258;51.148;14.068;2023-07-31T09:25:15;4.05;;;2.30;;
52318;SDS011;38258;51.148;14.068;2023-07-31T09:27:46;4.38;;;2.53;;
52318;SDS011;38258;51.148;14.068;2023-07-31T09:30:13;5.10;;;2.28;;
52318;SDS011;38258;51.148;14.068;2023-07-31T09:32:40;4.30;;;2.45;;
52318;SDS011;38258;51.148;14.068;2023-07-31T09:35:13;4.53;;;2.30;;
52318;SDS011;38258;51.148;14.068;2023-07-31T09:37:40;3.92;;;2.17;;
52318;SDS011;38258;51.148;14.068;2023-07-31T09:40:07;4.43;;;2.50;;
52318;SDS011;38258;51.148;14.068;2023-07-31T09:42:36;5.43;;;2.38;;
52318;SDS011;38258;51.148;14.068;2023-07-31T09:45:09;4.85;;;2.20;;
52318;SDS011;38258;51.148;14.068;2023-07-31T09:47:37;5.22;;;2.13;;
52318;SDS011;38258;51.148;14.068;2023-07-31T09:50:06;4.65;;;2.40;;
52318;SDS011;38258;51.148;14.068;2023-07-31T09:52:34;5.13;;;2.20;;
52318;SDS011;38258;51.148;14.068;2023-07-31T09:55:04;5.47;;;2.42;;
52318;SDS011;38258;51.148;14.068;2023-07-31T09:57:32;4.00;;;2.60;;
52318;SDS011;38258;51.148;14.068;2023-07-31T10:00:01;4.57;;;2.40;;
52318;SDS011;38258;51.148;14.068;2023-07-31T10:02:37;3.85;;;2.35;;
52318;SDS011;38258;51.148;14.068;2023-07-31T10:05:05;4.93;;;2.35;;
52318;SDS011;38258;51.148;14.068;2023-07-31T10:07:34;5.60;;;2.13;;
52318;SDS011;38258;51.148;14.068;2023-07-31T10:10:03;3.92;;;2.13;;
52318;SDS011;38258;51.148;14.068;2023-07-31T10:12:31;4.72;;;2.20;;
52318;SDS011;38258;51.148;14.068;2023-07-31T10:15:02;5.05;;;2.33;;
52318;SDS011;38258;51.148;14.068;2023-07-31T10:17:30;3.92;;;2.50;;
52318;SDS011;38258;51.148;14.068;2023-07-31T10:19:58;5.55;;;2.50;;
52318;SDS011;38258;51.148;14.068;2023-07-31T10:22:26;4.63;;;2.40;;
52318;SDS011;38258;51.148;14.068;2023-07-31T10:24:54;5.13;;;2.50;;
52318;SDS011;38258;51.148;14.068;2023-07-31T10:27:23;3.95;;;2.63;;
52318;SDS011;38258;51.148;14.068;2023-07-31T10:29:50;3.28;;;2.50;;
52318;SDS011;38258;51.148;14.068;2023-07-31T10:32:21;5.70;;;1.92;;
52318;SDS011;38258;51.148;14.068;2023-07-31T10:34:49;6.72;;;2.20;;
52318;SDS011;38258;51.148;14.068;2023-07-31T10:37:20;4.93;;;2.30;;
52318;SDS011;38258;51.148;14.068;2023-07-31T10:39:55;5.47;;;2.50;;
52318;SDS011;38258;51.148;14.068;2023-07-31T10:42:27;4.47;;;2.38;;
52318;SDS011;38258;51.148;14.068;2023-07-31T10:44:57;3.80;;;2.30;;
52318;SDS011;38258;51.148;14.068;2023-07-31T10:47:26;5.82;;;2.75;;
52318;SDS011;38258;51.148;14.068;2023-07-31T10:52:39;4.70;;;2.50;;
52318;SDS011;38258;51.148;14.068;2023-07-31T10:55:16;4.28;;;2.05;;
52318;SDS011;38258;51.148;14.068;2023-07-31T10:57:49;4.68;;;2.28;;
52318;SDS011;38258;51.148;14.068;2023-07-31T11:00:23;4.70;;;2.40;;
52318;SDS011;38258;51.148;14.068;2023-07-31T11:03:01;5.35;;;2.30;;
52318;SDS011;38258;51.148;14.068;2023-07-31T11:05:41;3.70;;;2.10;;
52318;SDS011;38258;51.148;14.068;2023-07-31T11:08:14;4.28;;;2.17;;
52318;SDS011;38258;51.148;14.068;2023-07-31T11:10:42;5.03;;;2.50;;
52318;SDS011;38258;51.148;14.068;2023-07-31T11:13:09;5.15;;;2.38;;
52318;SDS011;38258;51.148;14.068;2023-07-31T11:15:36;4.18;;;2.35;;
52318;SDS011;38258;51.148;14.068;2023-07-31T11:18:04;3.85;;;2.20;;
52318;SDS011;38258;51.148;14.068;2023-07-31T11:20:33;4.40;;;2.28;;
52318;SDS011;38258;51.148;14.068;2023-07-31T11:23:01;7.30;;;2.63;;
52318;SDS011;38258;51.148;14.068;2023-07-31T11:25:29;5.13;;;2.10;;
52318;SDS011;38258;51.148;14.068;2023-07-31T11:27:57;4.45;;;2.20;;
52318;SDS011;38258;51.148;14.068;2023-07-31T11:30:28;5.65;;;2.05;;
52318;SDS011;38258;51.148;14.068;2023-07-31T11:32:55;3.85;;;2.20;;
52318;SDS011;38258;51.148;14.068;2023-07-31T11:35:23;4.28;;;2.13;;
52318;SDS011;38258;51.148;14.068;2023-07-31T11:37:50;4.38;;;2.10;;
52318;SDS011;38258;51.148;14.068;2023-07-31T11:40:17;5.57;;;2.22;;
52318;SDS011;38258;51.148;14.068;2023-07-31T11:42:45;4.97;;;2.47;;
52318;SDS011;38258;51.148;14.068;2023-07-31T11:45:11;3.40;;;2.15;;
52318;SDS011;38258;51.148;14.068;2023-07-31T11:47:38;4.47;;;2.58;;
52318;SDS011;38258;51.148;14.068;2023-07-31T11:50:06;3.67;;;2.20;;
52318;SDS011;38258;51.148;14.068;2023-07-31T11:52:38;5.40;;;2.42;;
52318;SDS011;38258;51.148;14.068;2023-07-31T11:55:08;6.95;;;2.47;;
52318;SDS011;38258;51.148;14.068;2023-07-31T11:57:37;5.50;;;2.53;;
52318;SDS011;38258;51.148;14.068;2023-07-31T12:00:06;2.90;;;1.98;;
52318;SDS011;38258;51.148;14.068;2023-07-31T12:02:36;5.05;;;2.30;;
52318;SDS011;38258;51.148;14.068;2023-07-31T12:05:05;5.40;;;2.20;;
52318;SDS011;38258;51.148;14.068;2023-07-31T12:07:47;5.10;;;2.35;;
52318;SDS011;38258;51.148;14.068;2023-07-31T12:10:25;4.83;;;2.40;;
52318;SDS011;38258;51.148;14.068;2023-07-31T12:12:57;4.15;;;2.40;;
52318;SDS011;38258;51.148;14.068;2023-07-31T12:15:29;2.97;;;2.40;;
52318;SDS011;38258;51.148;14.068;2023-07-31T12:17:57;4.20;;;2.30;;
52318;SDS011;38258;51.148;14.068;2023-07-31T12:20:24;3.35;;;2.10;;
52318;SDS011;38258;51.148;14.068;2023-07-31T12:22:52;3.83;;;2.15;;
52318;SDS011;38258;51.148;14.068;2023-07-31T12:25:22;2.97;;;2.15;;
52318;SDS011;38258;51.148;14.068;2023-07-31T12:27:50;3.10;;;2.08;;
52318;SDS011;38258;51.148;14.068;2023-07-31T12:30:26;3.85;;;2.00;;
52318;SDS011;38258;51.148;14.068;2023-07-31T12:32:54;3.92;;;1.95;;
52318;SDS011;38258;51.148;14.068;2023-07-31T12:35:20;4.07;;;2.03;;
52318;SDS011;38258;51.148;14.068;2023-07-31T12:37:47;3.70;;;1.98;;
52318;SDS011;38258;51.148;14.068;2023-07-31T12:40:15;3.35;;;1.88;;
52318;SDS011;38258;51.148;14.068;2023-07-31T12:42:42;3.80;;;2.05;;
52318;SDS011;38258;51.148;14.068;2023-07-31T12:45:09;4.50;;;2.10;;
52318;SDS011;38258;51.148;14.068;2023-07-31T12:47:36;3.90;;;1.85;;
52318;SDS011;38258;51.148;14.068;2023-07-31T12:50:03;2.53;;;1.75;;
52318;SDS011;38258;51.148;14.068;2023-07-31T12:52:30;3.15;;;1.83;;
52318;SDS011;38258;51.148;14.068;2023-07-31T12:54:57;3.03;;;1.80;;
52318;SDS011;38258;51.148;14.068;2023-07-31T12:57:25;3.10;;;1.70;;
52318;SDS011;38258;51.148;14.068;2023-07-31T12:59:52;3.47;;;1.80;;
52318;SDS011;38258;51.148;14.068;2023-07-31T13:02:19;3.17;;;1.70;;
52318;SDS011;38258;51.148;14.068;2023-07-31T13:04:45;3.20;;;1.85;;
52318;SDS011;38258;51.148;14.068;2023-07-31T13:07:12;2.72;;;1.80;;
52318;SDS011;38258;51.148;14.068;2023-07-31T13:09:39;3.60;;;2.15;;
52318;SDS011;38258;51.148;14.068;2023-07-31T13:12:06;3.78;;;1.80;;
52318;SDS011;38258;51.148;14.068;2023-07-31T13:14:34;4.00;;;1.80;;
52318;SDS011;38258;51.148;14.068;2023-07-31T13:17:01;2.90;;;1.80;;
52318;SDS011;38258;51.148;14.068;2023-07-31T13:19:28;4.03;;;2.10;;
52318;SDS011;38258;51.148;14.068;2023-07-31T13:21:55;4.10;;;1.88;;
52318;SDS011;38258;51.148;14.068;2023-07-31T13:24:21;3.33;;;1.85;;
52318;SDS011;38258;51.148;14.068;2023-07-31T13:26:48;4.13;;;2.10;;
52318;SDS011;38258;51.148;14.068;2023-07-31T13:29:15;3.20;;;1.90;;
52318;SDS011;38258;51.148;14.068;2023-07-31T13:31:43;3.03;;;2.05;;
52318;SDS011;38258;51.148;14.068;2023-07-31T13:34:10;3.97;;;2.00;;
52318;SDS011;38258;51.148;14.068;2023-07-31T13:36:36;3.13;;;1.90;;
52318;SDS011;38258;51.148;14.068;2023-07-31T13:39:03;4.93;;;2.20;;
52318;SDS011;38258;51.148;14.068;2023-07-31T13:41:30;3.53;;;2.17;;
52318;SDS011;38258;51.148;14.068;2023-07-31T13:43:57;4.93;;;2.00;;
52318;SDS011;38258;51.148;14.068;2023-07-31T13:46:24;9.68;;;4.15;;
52318;SDS011;38258;51.148;14.068;2023-07-31T13:48:52;6.55;;;2.88;;
52318;SDS011;38258;51.148;14.068;2023-07-31T13:51:20;4.30;;;2.00;;
52318;SDS011;38258;51.148;14.068;2023-07-31T13:53:47;5.63;;;2.22;;
52318;SDS011;38258;51.148;14.068;2023-07-31T13:56:14;3.13;;;2.00;;
52318;SDS011;38258;51.148;14.068;2023-07-31T13:58:41;4.53;;;1.80;;
52318;SDS011;38258;51.148;14.068;2023-07-31T14:01:07;3.70;;;2.28;;
52318;SDS011;38258;51.148;14.068;2023-07-31T14:03:34;4.13;;;2.28;;
52318;SDS011;38258;51.148;14.068;2023-07-31T14:06:02;3.55;;;2.10;;
52318;SDS011;38258;51.148;14.068;2023-07-31T14:08:29;4.22;;;2.00;;
52318;SDS011;38258;51.148;14.068;2023-07-31T14:10:56;4.82;;;2.00;;
52318;SDS011;38258;51.148;14.068;2023-07-31T14:13:23;4.03;;;2.10;;
52318;SDS011;38258;51.148;14.068;2023-07-31T14:15:49;3.63;;;2.05;;
52318;SDS011;38258;51.148;14.068;2023-07-31T14:18:17;3.58;;;2.20;;
52318;SDS011;38258;51.148;14.068;2023-07-31T14:20:44;4.10;;;2.08;;
52318;SDS011;38258;51.148;14.068;2023-07-31T14:23:12;4.50;;;2.03;;
52318;SDS011;38258;51.148;14.068;2023-07-31T14:25:38;3.00;;;2.25;;
52318;SDS011;38258;51.148;14.068;2023-07-31T14:28:05;4.10;;;2.00;;
52318;SDS011;38258;51.148;14.068;2023-07-31T14:30:32;3.72;;;2.00;;
52318;SDS011;38258;51.148;14.068;2023-07-31T14:32:59;5.75;;;2.25;;
52318;SDS011;38258;51.148;14.068;2023-07-31T14:35:27;4.22;;;2.00;;
52318;SDS011;38258;51.148;14.068;2023-07-31T14:37:54;4.32;;;2.10;;
52318;SDS011;38258;51.148;14.068;2023-07-31T14:40:22;3.20;;;1.90;;